Time;durP1;ratioP1;P1;durP2;ratioP2;P2;SDS_P1;SDS_P2;PMS_P1;PMS_P2;Temp;Humidity;BMP_temperature;BMP_pressure;BME280_temperature;BME280_humidity;BME280_pressure;Samples;Min_cycle;Max_cycle;Signal;HPM_P1;HPM_P2
2022/07/22 00:01:39;;;;;;;6.17;2.47;;;;;;;18.20;100.00;100157.48;1713681;81;21038;-82
2022/07/22 00:04:05;;;;;;;9.83;2.85;;;;;;;18.15;100.00;100154.37;1713690;81;21022;-82
2022/07/22 00:06:31;;;;;;;4.28;2.37;;;;;;;18.11;100.00;100153.38;1709957;81;21615;-81
2022/07/22 00:08:58;;;;;;;7.50;2.52;;;;;;;18.08;100.00;100158.12;1713613;81;21015;-79
2022/07/22 00:11:24;;;;;;;4.17;2.67;;;;;;;18.06;100.00;100154.36;1713615;81;21969;-81
2022/07/22 00:13:50;;;;;;;5.78;2.62;;;;;;;18.07;100.00;100150.50;1713765;81;21121;-81
2022/07/22 00:16:16;;;;;;;6.67;2.52;;;;;;;18.09;100.00;100147.47;1713719;83;21547;-80
2022/07/22 00:18:42;;;;;;;7.28;2.92;;;;;;;18.10;100.00;100149.86;1713555;81;21052;-79
2022/07/22 00:21:08;;;;;;;5.78;2.95;;;;;;;18.12;100.00;100154.45;1713544;81;21637;-81
2022/07/22 00:23:34;;;;;;;10.00;3.02;;;;;;;18.15;100.00;100148.91;1713742;81;21087;-81
2022/07/22 00:26:00;;;;;;;5.42;2.50;;;;;;;18.19;100.00;100156.67;1713907;81;22610;-79
2022/07/22 00:28:27;;;;;;;7.53;2.95;;;;;;;18.21;100.00;100160.47;1713599;81;21015;-80
2022/07/22 00:30:52;;;;;;;8.65;2.98;;;;;;;18.24;100.00;100158.45;1713893;81;21061;-81
2022/07/22 00:33:19;;;;;;;7.85;3.00;;;;;;;18.26;100.00;100158.91;1713968;81;21594;-80
2022/07/22 00:35:45;;;;;;;7.95;3.47;;;;;;;18.29;100.00;100165.09;1713866;81;21054;-81
2022/07/22 00:38:11;;;;;;;7.10;2.87;;;;;;;18.29;100.00;100165.09;1713604;81;21023;-78
2022/07/22 00:40:37;;;;;;;8.65;2.90;;;;;;;18.30;100.00;100163.42;1713844;81;20916;-80
2022/07/22 00:43:03;;;;;;;8.28;2.85;;;;;;;18.32;100.00;100161.17;1713884;81;21035;-80
2022/07/22 00:45:29;;;;;;;7.62;3.35;;;;;;;18.35;100.00;100152.88;1713949;81;21030;-82
2022/07/22 00:47:55;;;;;;;6.37;3.08;;;;;;;18.36;100.00;100161.33;1713971;81;21041;-81
2022/07/22 00:50:23;;;;;;;8.35;3.45;;;;;;;18.36;100.00;100151.21;1713801;81;20876;-81
2022/07/22 00:52:49;;;;;;;6.25;3.25;;;;;;;18.36;100.00;100156.67;1713365;81;21547;-82
2022/07/22 00:55:15;;;;;;;8.73;3.50;;;;;;;18.39;100.00;100155.23;1714085;81;20960;-81
2022/07/22 00:57:42;;;;;;;8.73;3.10;;;;;;;18.39;100.00;100158.75;1713837;83;21102;-81
2022/07/22 01:00:14;;;;;;;7.42;3.20;;;;;;;18.41;100.00;100161.70;1713792;81;21178;-82
2022/07/22 01:02:40;;;;;;;6.50;3.58;;;;;;;18.42;100.00;100155.14;1713797;82;21039;-86
2022/07/22 01:05:07;;;;;;;6.87;3.60;;;;;;;18.44;100.00;100161.06;1713633;81;21554;-82
2022/07/22 01:07:33;;;;;;;7.03;3.72;;;;;;;18.50;100.00;100161.12;1691595;83;21118;-81
2022/07/22 01:09:59;;;;;;;5.42;2.92;;;;;;;18.49;100.00;100164.42;1713860;81;20995;-81
2022/07/22 01:12:25;;;;;;;9.60;3.52;;;;;;;18.50;100.00;100152.95;1713761;81;22012;-78
2022/07/22 01:14:51;;;;;;;6.53;3.15;;;;;;;18.53;100.00;100159.94;1713620;81;20907;-83
2022/07/22 01:17:17;;;;;;;8.20;3.65;;;;;;;18.54;100.00;100160.17;1710209;81;21058;-82
2022/07/22 01:19:43;;;;;;;6.83;3.60;;;;;;;18.57;100.00;100161.45;1713692;81;21497;-80
2022/07/22 01:22:09;;;;;;;8.23;3.50;;;;;;;18.61;100.00;100159.10;1713725;81;21071;-82
2022/07/22 01:24:36;;;;;;;7.97;3.90;;;;;;;18.65;100.00;100158.45;1713874;83;21022;-82
2022/07/22 01:27:02;;;;;;;7.92;3.90;;;;;;;18.66;100.00;100162.80;1713665;81;21063;-79
2022/07/22 01:29:28;;;;;;;8.55;3.75;;;;;;;18.68;100.00;100156.44;1713791;81;21015;-82
2022/07/22 01:31:54;;;;;;;9.45;3.90;;;;;;;18.68;100.00;100161.36;1713756;81;21059;-81
2022/07/22 01:34:20;;;;;;;15.35;4.28;;;;;;;18.67;100.00;100157.00;1713630;81;21260;-78
2022/07/22 01:36:46;;;;;;;8.93;3.77;;;;;;;18.67;100.00;100158.94;1714133;81;21223;-81
2022/07/22 01:39:13;;;;;;;10.53;4.67;;;;;;;18.64;100.00;100161.75;1713836;81;20963;-81
2022/07/22 01:41:40;;;;;;;11.48;4.15;;;;;;;18.61;100.00;100161.83;1713477;81;20952;-82
2022/07/22 01:44:06;;;;;;;6.58;3.87;;;;;;;18.59;100.00;100164.67;1713786;81;21528;-81
2022/07/22 01:46:32;;;;;;;8.23;4.08;;;;;;;18.56;100.00;100168.02;1713778;81;20904;-80
2022/07/22 01:48:58;;;;;;;7.30;3.62;;;;;;;18.51;100.00;100167.64;1713715;81;21074;-82
2022/07/22 01:51:24;;;;;;;15.88;4.37;;;;;;;18.46;100.00;100162.34;1713603;81;21011;-80
2022/07/22 01:53:50;;;;;;;12.07;4.70;;;;;;;18.43;100.00;100166.29;1713638;81;20996;-82
2022/07/22 01:56:16;;;;;;;9.88;3.77;;;;;;;18.37;100.00;100169.74;1691279;82;21536;-80
2022/07/22 01:58:42;;;;;;;8.25;4.65;;;;;;;18.37;100.00;100168.38;1713785;81;20932;-82
2022/07/22 02:01:09;;;;;;;7.85;4.00;;;;;;;18.38;100.00;100165.87;1709804;81;21063;-80
2022/07/22 02:03:35;;;;;;;8.23;4.28;;;;;;;18.39;100.00;100172.96;1713630;81;21066;-80
2022/07/22 02:06:03;;;;;;;11.20;4.60;;;;;;;18.41;100.00;100171.26;1713788;81;21058;-82
2022/07/22 02:08:29;;;;;;;7.80;4.35;;;;;;;18.42;100.00;100162.77;1691437;81;21066;-81
2022/07/22 02:10:55;;;;;;;10.60;3.90;;;;;;;18.44;100.00;100165.95;1713870;81;21657;-82
2022/07/22 02:13:21;;;;;;;8.43;4.33;;;;;;;18.43;100.00;100168.45;1713917;81;21113;-78
2022/07/22 02:15:47;;;;;;;9.95;4.15;;;;;;;18.45;100.00;100167.58;1713599;83;20876;-80
2022/07/22 02:18:18;;;;;;;8.98;4.42;;;;;;;18.44;100.00;100170.61;1713579;81;21693;-81
2022/07/22 02:20:45;;;;;;;9.50;4.25;;;;;;;18.44;100.00;100171.97;1713747;81;21067;-82
2022/07/22 02:23:11;;;;;;;7.75;4.67;;;;;;;18.44;100.00;100184.25;1713665;81;21424;-82
2022/07/22 02:25:39;;;;;;;9.15;4.22;;;;;;;18.43;100.00;100180.73;1713702;81;21151;-83
2022/07/22 02:28:05;;;;;;;8.13;4.58;;;;;;;18.40;100.00;100184.11;1713369;81;20995;-80
2022/07/22 02:30:32;;;;;;;7.58;4.20;;;;;;;18.39;100.00;100186.03;1713643;81;20987;-81
2022/07/22 02:32:58;;;;;;;10.55;5.05;;;;;;;18.39;100.00;100183.30;1713582;81;21516;-81
2022/07/22 02:35:24;;;;;;;10.55;4.42;;;;;;;18.39;100.00;100189.33;1713802;81;20987;-81
2022/07/22 02:37:50;;;;;;;11.50;4.67;;;;;;;18.37;100.00;100185.55;1713726;81;21531;-81
2022/07/22 02:40:17;;;;;;;8.70;4.20;;;;;;;18.36;100.00;100188.61;1713292;81;21022;-81
2022/07/22 02:42:43;;;;;;;7.95;4.30;;;;;;;18.34;100.00;100197.67;1713510;81;21610;-81
2022/07/22 02:45:09;;;;;;;11.48;4.47;;;;;;;18.31;100.00;100196.38;1713120;81;21139;-81
2022/07/22 02:47:38;;;;;;;8.90;4.25;;;;;;;18.33;100.00;100197.44;1713468;81;21078;-80
2022/07/22 02:50:04;;;;;;;8.30;4.78;;;;;;;18.36;100.00;100203.62;1710046;81;21312;-81
2022/07/22 02:52:30;;;;;;;9.10;4.37;;;;;;;18.38;100.00;100199.45;1713506;81;21070;-82
2022/07/22 02:54:57;;;;;;;10.30;4.75;;;;;;;18.41;100.00;100193.09;1713285;81;20884;-81
2022/07/22 02:57:23;;;;;;;8.25;4.87;;;;;;;18.44;100.00;100193.23;1713307;81;21457;-82
2022/07/22 02:59:49;;;;;;;11.22;4.72;;;;;;;18.50;100.00;100197.44;1713514;81;21069;-86
2022/07/22 03:02:15;;;;;;;9.00;5.05;;;;;;;18.57;100.00;100200.46;1713669;81;21807;-81
2022/07/22 03:04:41;;;;;;;11.30;4.80;;;;;;;18.61;100.00;100198.68;1713624;81;20907;-81
2022/07/22 03:07:07;;;;;;;8.98;5.33;;;;;;;18.65;100.00;100197.49;1713795;81;21686;-81
2022/07/22 03:09:33;;;;;;;9.65;5.15;;;;;;;18.72;100.00;100202.45;1691740;82;21043;-82
2022/07/22 03:11:59;;;;;;;12.60;5.15;;;;;;;18.80;100.00;100205.77;1713638;81;20916;-81
2022/07/22 03:14:25;;;;;;;11.57;4.97;;;;;;;18.88;100.00;100205.48;1713720;83;21982;-81
2022/07/22 03:16:51;;;;;;;8.15;4.67;;;;;;;18.91;100.00;100209.73;1713778;81;21039;-79
2022/07/22 03:19:17;;;;;;;10.78;4.85;;;;;;;18.96;100.00;100206.03;1713967;82;21689;-82
2022/07/22 03:21:43;;;;;;;9.70;4.72;;;;;;;18.97;100.00;100207.09;1713702;81;20884;-81
2022/07/22 03:24:09;;;;;;;12.03;5.22;;;;;;;18.99;100.00;100209.48;1713841;81;21582;-82
2022/07/22 03:26:36;;;;;;;8.85;4.80;;;;;;;18.99;100.00;100212.21;1713768;81;21048;-80
2022/07/22 03:29:02;;;;;;;8.13;4.15;;;;;;;18.98;100.00;100211.41;1713389;81;21074;-82
2022/07/22 03:31:28;;;;;;;8.30;4.50;;;;;;;18.98;100.00;100214.72;1713810;81;20999;-82
2022/07/22 03:33:54;;;;;;;12.13;4.83;;;;;;;18.99;100.00;100215.73;1713753;81;21003;-81
2022/07/22 03:36:20;;;;;;;11.80;4.83;;;;;;;19.03;100.00;100217.25;1713816;81;21737;-81
2022/07/22 03:38:46;;;;;;;10.40;4.90;;;;;;;19.05;100.00;100220.47;1713751;81;21174;-81
2022/07/22 03:41:12;;;;;;;10.88;5.03;;;;;;;19.05;100.00;100217.16;1713750;81;20987;-81
2022/07/22 03:43:38;;;;;;;9.78;5.30;;;;;;;19.05;100.00;100221.83;1713756;81;21059;-82
2022/07/22 03:46:04;;;;;;;13.62;5.53;;;;;;;19.08;100.00;100225.27;1713974;81;21051;-81
2022/07/22 03:48:30;;;;;;;13.53;5.45;;;;;;;19.08;100.00;100221.18;1713904;81;21352;-84
2022/07/22 03:50:57;;;;;;;14.93;6.40;;;;;;;19.10;100.00;100226.33;1713836;81;21169;-81
2022/07/22 03:53:23;;;;;;;11.40;6.35;;;;;;;19.11;100.00;100222.45;1713528;81;21000;-81
2022/07/22 03:55:49;;;;;;;13.43;6.35;;;;;;;19.15;100.00;100228.32;1713580;82;20986;-82
2022/07/22 03:58:18;;;;;;;13.30;6.28;;;;;;;19.19;100.00;100233.93;1713703;81;21054;-80
2022/07/22 04:00:44;;;;;;;13.20;6.62;;;;;;;19.24;100.00;100231.82;1713422;81;21050;-81
2022/07/22 04:03:10;;;;;;;14.78;6.42;;;;;;;19.28;100.00;100236.86;1713736;81;21059;-82
2022/07/22 04:05:36;;;;;;;13.45;7.17;;;;;;;19.35;100.00;100236.34;1691309;81;20995;-82
2022/07/22 04:08:02;;;;;;;16.70;7.17;;;;;;;19.40;100.00;100232.07;1713891;81;21070;-79
2022/07/22 04:10:29;;;;;;;16.90;6.65;;;;;;;19.44;100.00;100234.95;1713674;81;21000;-79
2022/07/22 04:12:55;;;;;;;13.15;6.60;;;;;;;19.49;100.00;100236.94;1713753;81;21121;-82
2022/07/22 04:15:21;;;;;;;13.43;6.42;;;;;;;19.57;100.00;100240.77;1713590;81;21101;-82
2022/07/22 04:17:46;;;;;;;14.98;6.92;;;;;;;19.62;100.00;100241.95;1713680;81;21692;-82
2022/07/22 04:20:13;;;;;;;13.10;6.25;;;;;;;19.69;100.00;100246.36;1713723;81;20916;-82
2022/07/22 04:22:39;;;;;;;12.98;6.62;;;;;;;19.71;100.00;100248.78;1713395;81;21046;-83
2022/07/22 04:25:06;;;;;;;14.28;6.42;;;;;;;19.73;100.00;100248.66;1713662;81;21011;-81
2022/07/22 04:27:32;;;;;;;11.95;6.65;;;;;;;19.77;100.00;100254.30;1713817;81;22150;-82
2022/07/22 04:29:58;;;;;;;11.05;6.10;;;;;;;19.78;100.00;100254.52;1703480;82;21079;-82
2022/07/22 04:32:24;;;;;;;11.33;5.62;;;;;;;19.78;100.00;100261.36;1703526;84;20896;-83
2022/07/22 04:34:50;;;;;;;9.00;5.28;;;;;;;19.80;100.00;100267.87;1703337;83;20936;-80
2022/07/22 04:37:16;;;;;;;15.35;5.53;;;;;;;19.77;100.00;100268.54;1703301;83;20880;-83
2022/07/22 04:39:42;;;;;;;10.30;5.20;;;;;;;19.79;100.00;100268.42;1694618;84;21301;-82
2022/07/22 04:42:09;;;;;;;7.30;4.65;;;;;;;19.82;100.00;100270.49;1697856;84;21079;-83
2022/07/22 04:44:35;;;;;;;8.45;5.15;;;;;;;19.87;100.00;100267.58;1686188;84;21114;-82
2022/07/22 04:47:01;;;;;;;7.03;4.55;;;;;;;19.92;100.00;100267.39;1688565;84;21031;-81
2022/07/22 04:49:27;;;;;;;10.30;4.22;;;;;;;19.95;100.00;100268.10;1691454;83;21500;-82
2022/07/22 04:51:53;;;;;;;8.75;4.90;;;;;;;20.03;100.00;100265.62;1685770;84;21085;-83
2022/07/22 04:54:19;;;;;;;10.20;4.67;;;;;;;20.07;100.00;100274.23;1679526;84;20920;-83
2022/07/22 04:56:44;;;;;;;11.10;4.83;;;;;;;20.17;100.00;100274.39;1703488;84;20928;-82
2022/07/22 04:59:14;;;;;;;9.10;4.62;;;;;;;20.24;100.00;100279.36;1704984;83;20963;-83
2022/07/22 05:01:40;;;;;;;8.95;5.10;;;;;;;20.32;100.00;100275.17;1699546;84;20944;-82
2022/07/22 05:04:06;;;;;;;10.68;4.70;;;;;;;20.54;100.00;100274.66;1703432;83;21125;-82
2022/07/22 05:06:32;;;;;;;9.55;4.58;;;;;;;20.84;100.00;100269.30;1703526;82;21051;-83
2022/07/22 05:08:58;;;;;;;5.97;4.03;;;;;;;21.58;100.00;100265.37;1703322;82;20995;-84
2022/07/22 05:11:24;;;;;;;6.45;3.62;;;;;;;22.80;100.00;100282.23;1703653;83;20979;-85
2022/07/22 05:13:50;;;;;;;4.58;3.33;;;;;;;23.08;100.00;100279.47;1703695;83;21019;-85
2022/07/22 05:16:16;;;;;;;5.92;3.52;;;;;;;23.08;100.00;100282.22;1703677;83;21261;-82
2022/07/22 05:18:42;;;;;;;4.78;3.55;;;;;;;23.02;100.00;100275.39;1703462;84;21084;-82
2022/07/22 05:21:08;;;;;;;6.25;4.12;;;;;;;23.25;100.00;100274.23;1703675;84;20885;-84
2022/07/22 05:23:34;;;;;;;6.30;4.20;;;;;;;23.54;100.00;100275.75;1703449;84;21087;-83
2022/07/22 05:26:00;;;;;;;7.75;4.20;;;;;;;23.67;100.00;100268.77;1669083;85;21036;-84
2022/07/22 05:28:27;;;;;;;9.93;4.60;;;;;;;23.76;100.00;100266.66;1665700;85;21065;-84
2022/07/22 05:30:53;;;;;;;8.65;4.42;;;;;;;24.00;100.00;100270.59;1653000;86;21035;-83
2022/07/22 05:33:19;;;;;;;7.05;4.78;;;;;;;24.03;100.00;100274.00;1708774;83;21370;-83
2022/07/22 05:35:45;;;;;;;14.95;5.12;;;;;;;23.98;100.00;100271.52;1708592;84;20932;-83
2022/07/22 05:38:11;;;;;;;8.88;4.45;;;;;;;23.84;100.00;100282.78;1708493;84;21491;-83
2022/07/22 05:40:37;;;;;;;8.30;4.85;;;;;;;23.62;100.00;100280.86;1708555;84;21348;-83
2022/07/22 05:43:03;;;;;;;8.80;5.00;;;;;;;23.69;100.00;100278.85;1708698;84;21074;-83
2022/07/22 05:45:29;;;;;;;7.00;4.65;;;;;;;24.23;100.00;100276.77;1708413;84;21666;-84
2022/07/22 05:47:55;;;;;;;8.35;4.28;;;;;;;24.42;100.00;100280.97;1708839;84;21514;-82
2022/07/22 05:50:22;;;;;;;4.90;4.00;;;;;;;24.43;100.00;100284.52;1726787;81;21027;-83
2022/07/22 05:52:48;;;;;;;5.55;4.25;;;;;;;24.53;100.00;100281.77;1765155;80;21077;-83
2022/07/22 05:55:14;;;;;;;7.08;4.62;;;;;;;24.80;100.00;100280.77;1765490;81;21000;-83
2022/07/22 05:57:40;;;;;;;6.05;3.80;;;;;;;25.55;100.00;100279.37;1765768;81;21365;-86
2022/07/22 06:00:09;;;;;;;8.53;4.10;;;;;;;25.86;100.00;100282.27;1765353;81;20866;-83
2022/07/22 06:02:35;;;;;;;6.45;4.10;;;;;;;26.29;100.00;100276.16;1744283;82;20990;-85
2022/07/22 06:05:02;;;;;;;6.83;4.65;;;;;;;27.01;100.00;100277.05;1744486;82;21087;-85
2022/07/22 06:07:28;;;;;;;6.97;4.15;;;;;;;27.83;100.00;100279.80;1744146;82;21636;-84
2022/07/22 06:09:54;;;;;;;5.12;4.20;;;;;;;28.41;98.23;100284.50;1744335;82;21026;-83
2022/07/22 06:12:20;;;;;;;7.28;4.58;;;;;;;28.23;92.45;100293.30;1744616;82;21539;-89
2022/07/22 06:14:46;;;;;;;10.63;5.33;;;;;;;28.02;90.35;100298.13;1744612;82;21183;-84
2022/07/22 06:17:13;;;;;;;9.38;5.83;;;;;;;27.70;92.16;100299.25;1719713;82;21100;-82
2022/07/22 06:19:40;;;;;;;6.60;4.45;;;;;;;28.36;92.68;100294.57;1719378;82;21007;-84
2022/07/22 06:22:06;;;;;;;12.05;4.58;;;;;;;29.55;89.97;100292.94;1744209;82;21160;-84
2022/07/22 06:24:32;;;;;;;6.65;4.12;;;;;;;30.27;79.35;100288.94;1744524;82;21022;-85
2022/07/22 06:26:58;;;;;;;5.53;4.47;;;;;;;30.46;75.57;100288.27;1744494;82;21171;-84
2022/07/22 06:29:24;;;;;;;5.70;4.50;;;;;;;30.12;73.59;100292.92;1746144;81;21141;-85
2022/07/22 06:31:50;;;;;;;5.40;4.30;;;;;;;29.32;71.92;100290.55;1741797;80;21112;-84
2022/07/22 06:34:16;;;;;;;9.90;4.42;;;;;;;28.62;73.82;100294.92;1739116;82;21046;-83
2022/07/22 06:36:42;;;;;;;8.63;3.98;;;;;;;28.25;75.21;100295.10;1735346;82;20941;-83
2022/07/22 06:39:09;;;;;;;6.33;4.08;;;;;;;27.87;75.10;100293.08;1739315;82;21002;-82
2022/07/22 06:41:35;;;;;;;4.97;3.62;;;;;;;27.76;76.77;100292.17;1739391;82;21093;-83
2022/07/22 06:44:04;;;;;;;6.37;3.58;;;;;;;27.65;75.29;100283.80;1739283;82;20959;-84
2022/07/22 06:46:30;;;;;;;5.08;3.67;;;;;;;27.66;76.75;100287.36;1739344;82;21599;-88
2022/07/22 06:48:56;;;;;;;6.17;3.87;;;;;;;27.89;76.56;100287.17;1739200;82;21566;-83
2022/07/22 06:51:22;;;;;;;4.83;3.80;;;;;;;28.01;75.28;100283.48;1739391;82;21077;-82
2022/07/22 06:53:48;;;;;;;6.30;3.20;;;;;;;29.03;77.06;100282.77;1739570;82;21076;-84
2022/07/22 06:56:15;;;;;;;3.90;3.47;;;;;;;29.96;71.51;100281.43;1738912;82;20975;-82
2022/07/22 06:58:41;;;;;;;5.37;3.37;;;;;;;30.76;69.58;100277.39;1739318;82;21563;-83
2022/07/22 07:01:07;;;;;;;7.05;3.37;;;;;;;31.40;64.73;100278.23;1739320;82;20987;-82
2022/07/22 07:03:33;;;;;;;3.95;3.25;;;;;;;32.40;63.43;100281.44;1739324;82;20904;-80
2022/07/22 07:05:59;;;;;;;5.58;2.75;;;;;;;32.54;59.54;100284.09;1750766;81;21224;-82
2022/07/22 07:08:26;;;;;;;5.47;3.52;;;;;;;32.53;56.97;100292.86;1760722;80;20988;-84
2022/07/22 07:10:52;;;;;;;4.08;3.40;;;;;;;32.40;56.33;100287.63;1760492;81;20984;-86
2022/07/22 07:13:18;;;;;;;4.85;3.27;;;;;;;33.28;55.46;100284.86;1760558;81;21028;-82
2022/07/22 07:15:44;;;;;;;5.33;3.15;;;;;;;33.56;51.78;100283.66;1760478;81;20948;-84
2022/07/22 07:18:10;;;;;;;4.05;2.65;;;;;;;33.47;51.95;100290.34;1760248;81;21140;-85
2022/07/22 07:20:36;;;;;;;4.28;3.10;;;;;;;32.95;49.12;100296.31;1760268;81;21481;-82
2022/07/22 07:23:03;;;;;;;3.42;3.12;;;;;;;32.67;51.87;100290.50;1760430;80;20968;-85
2022/07/22 07:25:29;;;;;;;4.37;2.98;;;;;;;33.48;50.30;100280.14;1760463;81;21004;-84
2022/07/22 07:27:55;;;;;;;3.02;2.72;;;;;;;34.13;48.75;100276.25;1760384;81;21426;-83
2022/07/22 07:30:22;;;;;;;4.70;2.75;;;;;;;34.63;47.74;100286.45;1760495;80;21292;-84
2022/07/22 07:32:48;;;;;;;3.45;2.83;;;;;;;35.20;45.64;100290.77;1819869;78;21015;-84
2022/07/22 07:35:15;;;;;;;6.25;2.77;;;;;;;34.15;44.24;100296.17;1820475;78;21037;-83
2022/07/22 07:37:42;;;;;;;6.22;2.70;;;;;;;33.63;44.96;100297.49;1820454;78;21543;-84
2022/07/22 07:40:09;;;;;;;3.65;2.90;;;;;;;33.94;44.75;100295.94;1820043;78;20991;-83
2022/07/22 07:42:35;;;;;;;5.05;2.52;;;;;;;34.08;44.47;100303.31;1820529;78;21007;-82
2022/07/22 07:45:02;;;;;;;3.10;2.85;;;;;;;34.46;44.22;100296.76;1788689;78;21035;-83
2022/07/22 07:47:29;;;;;;;4.22;2.80;;;;;;;35.20;42.52;100302.59;1820393;78;21022;-86
2022/07/22 07:49:55;;;;;;;4.85;2.50;;;;;;;35.35;41.79;100294.63;1820392;78;21035;-84
2022/07/22 07:52:21;;;;;;;2.65;2.45;;;;;;;35.73;40.99;100292.09;1820504;78;21003;-85
2022/07/22 07:54:48;;;;;;;5.97;2.90;;;;;;;36.33;41.00;100292.49;1819338;78;22100;-83
2022/07/22 07:57:14;;;;;;;4.03;2.62;;;;;;;36.64;40.25;100276.56;1820088;78;21034;-84
2022/07/22 07:59:40;;;;;;;4.12;2.90;;;;;;;36.47;39.05;100302.50;1820281;78;21520;-85
2022/07/22 08:02:08;;;;;;;8.80;3.02;;;;;;;35.87;39.49;100300.13;1820380;78;21007;-84
2022/07/22 08:04:36;;;;;;;4.92;2.90;;;;;;;36.05;39.34;100301.08;1820449;78;21014;-84
2022/07/22 08:07:04;;;;;;;2.65;2.37;;;;;;;36.68;39.66;100303.13;1820364;78;21243;-85
2022/07/22 08:09:30;;;;;;;3.50;2.70;;;;;;;37.44;38.29;100313.62;1820446;78;21038;-84
2022/07/22 08:11:56;;;;;;;3.60;2.55;;;;;;;37.68;36.69;100307.01;1820486;78;21042;-84
2022/07/22 08:14:23;;;;;;;6.80;2.72;;;;;;;37.66;36.74;100308.89;1820295;78;21053;-85
2022/07/22 08:16:50;;;;;;;2.25;2.05;;;;;;;37.66;35.63;100310.92;1820077;78;21074;-85
2022/07/22 08:19:16;;;;;;;4.97;2.35;;;;;;;36.16;35.45;100312.80;1820446;78;21206;-82
2022/07/22 08:21:42;;;;;;;10.43;2.62;;;;;;;34.85;36.95;100311.95;1820376;78;20883;-85
2022/07/22 08:24:10;;;;;;;2.75;2.20;;;;;;;33.99;38.00;100322.02;1820085;78;20996;-83
2022/07/22 08:26:36;;;;;;;2.92;2.50;;;;;;;33.32;39.38;100319.11;1820305;78;21003;-82
2022/07/22 08:29:05;;;;;;;3.92;2.12;;;;;;;32.72;39.79;100332.70;1820316;78;21034;-84
2022/07/22 08:31:34;;;;;;;6.00;2.30;;;;;;;32.94;40.75;100331.80;1814259;78;21152;-85
2022/07/22 08:33:59;;;;;;;2.35;2.08;;;;;;;33.81;40.86;100317.36;1803342;79;21016;-83
2022/07/22 08:36:26;;;;;;;2.52;1.95;;;;;;;34.55;39.92;100315.80;1804100;79;21023;-84
2022/07/22 08:38:52;;;;;;;6.45;2.30;;;;;;;35.25;39.08;100314.07;1803806;79;21028;-84
2022/07/22 08:41:21;;;;;;;7.35;2.10;;;;;;;35.48;38.00;100313.12;1803530;79;20913;-84
2022/07/22 08:43:49;;;;;;;2.65;2.10;;;;;;;35.00;38.43;100318.84;1803922;79;21200;-83
2022/07/22 08:46:15;;;;;;;2.87;2.10;;;;;;;35.22;38.92;100319.77;1799643;79;21047;-83
2022/07/22 08:48:42;;;;;;;3.40;1.70;;;;;;;35.76;38.30;100319.25;1803809;79;21035;-84
2022/07/22 08:51:08;;;;;;;2.10;1.90;;;;;;;35.98;36.95;100313.10;1804085;79;21028;-83
2022/07/22 08:53:34;;;;;;;3.05;2.15;;;;;;;35.55;36.71;100305.17;1804227;79;21007;-84
2022/07/22 08:56:00;;;;;;;3.05;1.90;;;;;;;34.41;36.99;100308.45;1803953;79;21101;-85
2022/07/22 08:58:27;;;;;;;3.47;2.50;;;;;;;33.61;39.06;100312.48;1804335;79;21555;-84
2022/07/22 09:01:11;;;;;;;2.52;2.12;;;;;;;33.76;39.19;100311.64;1804071;79;20968;-84
2022/07/22 09:03:50;;;;;;;2.05;1.95;;;;;;;33.12;39.71;100313.45;1804089;79;21031;-82
2022/07/22 09:06:20;;;;;;;2.42;2.10;;;;;;;33.14;40.31;100317.98;1804121;79;20991;-86
2022/07/22 09:09:00;;;;;;;3.30;2.40;;;;;;;33.78;39.20;100312.01;1707765;82;21970;-84
2022/07/22 09:11:29;;;;;;;2.35;2.15;;;;;;;34.20;38.71;100313.86;1707763;84;21098;-83
2022/07/22 09:13:57;;;;;;;2.75;2.37;;;;;;;33.31;38.54;100322.34;1707759;84;21026;-84
2022/07/22 09:16:46;;;;;;;3.47;2.10;;;;;;;32.11;39.33;100317.23;1707617;84;21629;-86
2022/07/22 09:19:13;;;;;;;3.02;2.33;;;;;;;31.15;40.83;100321.53;1723601;83;21094;-83
2022/07/22 09:21:44;;;;;;;6.78;2.40;;;;;;;30.92;43.11;100309.56;1723830;83;21142;-84
2022/07/22 09:24:32;;;;;;;3.70;2.17;;;;;;;31.77;42.31;100309.57;1723486;83;21070;-84
2022/07/22 09:26:58;;;;;;;4.53;2.10;;;;;;;31.60;40.92;100309.91;1723960;83;21027;-84
2022/07/22 09:29:25;;;;;;;5.33;2.00;;;;;;;30.65;42.25;100330.10;1723875;83;21631;-84
2022/07/22 09:31:52;;;;;;;2.80;2.42;;;;;;;30.06;42.94;100323.68;1720370;83;21079;-84
2022/07/22 09:34:34;;;;;;;3.05;1.95;;;;;;;30.58;44.00;100321.20;1715736;83;21086;-83
2022/07/22 09:37:02;;;;;;;2.30;2.10;;;;;;;31.47;42.95;100314.98;1715049;83;21142;-83
2022/07/22 09:39:32;;;;;;;2.30;2.10;;;;;;;32.34;41.82;100325.73;1715125;83;21540;-83
2022/07/22 09:42:06;;;;;;;2.30;1.65;;;;;;;32.88;40.69;100313.94;1715282;83;21112;-84
2022/07/22 09:44:33;;;;;;;7.87;2.55;;;;;;;32.63;40.71;100326.05;1715581;83;21040;-85
2022/07/22 09:46:59;;;;;;;3.37;1.77;;;;;;;32.40;41.14;100320.50;1715548;83;21074;-84
2022/07/22 09:49:38;;;;;;;2.72;2.10;;;;;;;32.01;40.61;100323.11;1715605;83;21044;-85
2022/07/22 09:52:04;;;;;;;2.35;2.00;;;;;;;31.93;40.65;100320.19;1715309;83;21036;-85
2022/07/22 09:54:31;;;;;;;2.42;1.95;;;;;;;32.09;41.15;100321.02;1715604;83;21103;-84
2022/07/22 09:56:59;;;;;;;4.30;1.82;;;;;;;31.81;41.05;100314.50;1725828;83;21539;-83
2022/07/22 09:59:25;;;;;;;2.33;2.05;;;;;;;31.40;41.58;100313.84;1729776;83;21146;-83
2022/07/22 10:01:55;;;;;;;5.65;2.10;;;;;;;30.76;41.92;100321.91;1700425;84;21107;-83
2022/07/22 10:04:24;;;;;;;5.17;2.27;;;;;;;30.20;42.25;100325.05;1672335;85;21062;-84
2022/07/22 10:06:51;;;;;;;5.33;2.05;;;;;;;29.82;43.32;100332.25;1715072;82;21539;-83
2022/07/22 10:09:19;;;;;;;1.90;1.80;;;;;;;29.91;44.89;100331.84;1716545;82;21105;-85
2022/07/22 10:11:46;;;;;;;3.50;1.72;;;;;;;30.24;44.71;100333.44;1716269;82;21242;-83
2022/07/22 10:14:17;;;;;;;3.25;2.00;;;;;;;30.49;43.71;100331.36;1716081;82;21085;-83
2022/07/22 10:16:44;;;;;;;4.12;1.82;;;;;;;30.93;44.75;100336.19;1716360;82;20967;-83
2022/07/22 10:19:11;;;;;;;1.70;1.60;;;;;;;31.11;44.20;100331.91;1716663;82;21010;-83
2022/07/22 10:21:37;;;;;;;1.95;1.80;;;;;;;30.76;43.48;100339.20;1716212;82;21551;-84
2022/07/22 10:24:17;;;;;;;5.28;1.80;;;;;;;30.20;43.93;100345.90;1716348;82;21223;-84
2022/07/22 10:26:55;;;;;;;4.20;1.92;;;;;;;29.91;45.14;100352.08;1715665;82;21090;-84
2022/07/22 10:29:34;;;;;;;3.58;1.90;;;;;;;30.00;45.06;100348.33;1716114;82;21617;-84
2022/07/22 10:32:17;;;;;;;2.55;1.90;;;;;;;29.86;45.67;100348.34;1676126;84;21123;-84
2022/07/22 10:35:01;;;;;;;7.25;2.00;;;;;;;29.69;46.00;100349.13;1603368;88;21021;-83
2022/07/22 10:37:41;;;;;;;5.15;1.95;;;;;;;29.26;45.24;100352.59;1605194;89;21197;-80
2022/07/22 10:40:16;;;;;;;2.20;2.00;;;;;;;28.79;45.35;100353.02;1605284;88;21119;-83
2022/07/22 10:43:04;;;;;;;4.45;1.80;;;;;;;28.95;46.80;100347.94;1605889;88;21010;-83
2022/07/22 10:45:38;;;;;;;5.87;1.77;;;;;;;29.55;47.55;100335.39;1605924;88;21079;-82
2022/07/22 10:48:09;;;;;;;9.60;2.05;;;;;;;30.28;46.76;100330.83;1578984;88;21542;-84
2022/07/22 10:50:40;;;;;;;2.50;1.50;;;;;;;30.89;46.10;100318.72;1575610;88;21208;-85
2022/07/22 10:53:15;;;;;;;4.83;1.87;;;;;;;31.20;44.74;100333.03;1579073;88;21058;-84
2022/07/22 10:56:03;;;;;;;2.87;1.57;;;;;;;31.45;45.03;100332.91;1561299;90;21723;-81
2022/07/22 10:58:38;;;;;;;4.58;2.10;;;;;;;31.50;43.83;100333.05;1508991;93;21178;-83
2022/07/22 11:01:11;;;;;;;2.40;1.40;;;;;;;30.97;43.18;100344.72;1512483;93;21116;-84
2022/07/22 11:03:41;;;;;;;2.33;1.90;;;;;;;30.74;42.45;100354.92;1492520;96;21109;-84
2022/07/22 11:06:21;;;;;;;8.45;2.30;;;;;;;30.60;42.71;100348.63;1492753;96;21247;-83
2022/07/22 11:08:55;;;;;;;3.30;2.22;;;;;;;30.64;42.81;100343.83;1451038;97;21101;-83
2022/07/22 11:11:49;;;;;;;4.40;2.15;;;;;;;30.81;43.88;100340.81;1468691;97;21282;-85
2022/07/22 11:14:30;;;;;;;3.45;1.75;;;;;;;31.13;42.97;100345.62;1453284;98;21597;-83
2022/07/22 11:17:05;;;;;;;3.40;1.85;;;;;;;30.77;42.67;100351.94;1399087;101;21168;-82
2022/07/22 11:19:32;;;;;;;3.40;2.10;;;;;;;30.22;43.04;100354.67;1340334;107;21221;-85
2022/07/22 11:22:05;;;;;;;2.00;1.35;;;;;;;29.75;44.28;100362.22;1381641;103;21153;-84